Ana Sayfa
METAR-TAF:

METAR-TAF

Havaalanları :

Batman Havalimanı

Batman, Türkiye

Enlem: 37-52N, Boylam: 041-10E, yükseklik: 540 m

Güncel hava durumu gözlemi

Rapor saat 02:50 UTC de 31 dakika önce yapıldı.
Rüzgar değişken yönden 1 kt
Sıcaklık 11°C
Nem 82%
Basınç 1017 hPa
Görüş mesafesi 10 km veya daha fazla
10000 ft yükseklikte az bulutlu
20000 ft yükseklikte parçalı bulutlu

METAR: LTCJ 190250Z VRB01KT 9999 FEW100 SCT200 11/08 Q1017

Saat: 06:21 (03:21 UTC)

Tahmin

Rapor saat 22:40 UTC de 4 saat ve 41 dakika önce yapıldı.
Ayın 19'si saat 00 UTC'den ayın 19'si saat 24 UTC'ye kadar geçerli Tahmin
Rüzgar değişken yönden 2 kt
Görüş mesafesi 10 km veya daha fazla
10000 ft yükseklikte parçalı bulutlu

TAF: LTCJ 182240Z 1900/1924 VRB02KT 9999 SCT100

4.000'den fazla havaalanı için hava durumu gözlemleri ve tahminleri (METAR ve TAF raporları).

Kullanılabilir istasyonlar harita üzerinde sarı ve kırmızı noktalarla gösterilir.

İstasyonun adını görmek için fareyi noktanın üzerinde gezdirin.

Sonrasında hava gözlem ve tahminlerini görmek için tıklayın.

Haritayı değiştirmek için: yaklaştırmak için siyah artı işaretli yeşil düğmeye ve uzaklaştırmak için de eksi işaretli düğmeye hızla tıklayın; bitişik haritalar için yeşil okları kullanın.


METAR-TAF: